Woodside, Delaware
Current Conditions -  °F | °C
As of 5:19 AM on Tuesday 27 Jan 2015 (Local Time) from KDOV Reporting Station
Light Snow Light Snow  
Wind Chill: 13°   Ceiling: 3600
Heat Index: 27°   Visibility: 10mi
Dew Point: 23°   Wind: 21mph
Humidity: 86%   Direction: 330°NNW
Pressure: 29.69"   Gusts: NA
Location:  39.07°N, 75.57°W
Report Text: KDOV 271019Z 33018KT 10SM -SN OVC036 M03/M05 A2969 RMK AO2A SNB1006 $
Loading
Personal Weather Stations






























Interactive Weather Map New forecast layout! Learn more

10-Day Weather Forecast

Advertisements
Track Severe Weather on mobile